sensor_id;sensor_type;location;lat;lon;timestamp;P1;durP1;ratioP1;P2;durP2;ratioP2
23185;SDS011;11761;51.324;4.590;2023-02-21T00:02:22;63.95;;;29.25;;
23185;SDS011;11761;51.324;4.590;2023-02-21T00:05:06;72.65;;;31.33;;
23185;SDS011;11761;51.324;4.590;2023-02-21T00:07:51;64.50;;;29.85;;
23185;SDS011;11761;51.324;4.590;2023-02-21T00:10:35;73.55;;;32.47;;
23185;SDS011;11761;51.324;4.590;2023-02-21T00:13:20;79.82;;;34.45;;
23185;SDS011;11761;51.324;4.590;2023-02-21T00:16:04;77.43;;;34.13;;
23185;SDS011;11761;51.324;4.590;2023-02-21T00:18:49;81.43;;;35.33;;
23185;SDS011;11761;51.324;4.590;2023-02-21T00:21:33;86.43;;;36.55;;
23185;SDS011;11761;51.324;4.590;2023-02-21T00:24:18;85.13;;;35.75;;
23185;SDS011;11761;51.324;4.590;2023-02-21T00:27:03;86.15;;;37.03;;
23185;SDS011;11761;51.324;4.590;2023-02-21T00:29:49;97.72;;;38.03;;
23185;SDS011;11761;51.324;4.590;2023-02-21T00:32:34;91.93;;;38.90;;
23185;SDS011;11761;51.324;4.590;2023-02-21T00:35:19;103.70;;;40.05;;
23185;SDS011;11761;51.324;4.590;2023-02-21T00:38:03;106.78;;;40.35;;
23185;SDS011;11761;51.324;4.590;2023-02-21T00:40:47;101.65;;;39.28;;
23185;SDS011;11761;51.324;4.590;2023-02-21T00:43:33;94.07;;;38.33;;
23185;SDS011;11761;51.324;4.590;2023-02-21T00:46:18;96.72;;;39.17;;
23185;SDS011;11761;51.324;4.590;2023-02-21T00:49:04;95.78;;;39.42;;
23185;SDS011;11761;51.324;4.590;2023-02-21T00:51:49;91.78;;;37.03;;
23185;SDS011;11761;51.324;4.590;2023-02-21T00:54:33;89.28;;;36.72;;
23185;SDS011;11761;51.324;4.590;2023-02-21T00:57:19;94.85;;;37.30;;
23185;SDS011;11761;51.324;4.590;2023-02-21T01:00:05;98.32;;;38.83;;
23185;SDS011;11761;51.324;4.590;2023-02-21T01:02:51;93.70;;;37.15;;
23185;SDS011;11761;51.324;4.590;2023-02-21T01:05:35;95.97;;;35.83;;
23185;SDS011;11761;51.324;4.590;2023-02-21T01:08:20;99.22;;;37.30;;
23185;SDS011;11761;51.324;4.590;2023-02-21T01:11:04;91.25;;;36.13;;
23185;SDS011;11761;51.324;4.590;2023-02-21T01:13:49;99.68;;;35.20;;
23185;SDS011;11761;51.324;4.590;2023-02-21T01:16:33;96.25;;;35.53;;
23185;SDS011;11761;51.324;4.590;2023-02-21T01:19:18;93.80;;;34.20;;
23185;SDS011;11761;51.324;4.590;2023-02-21T01:22:03;100.80;;;34.72;;
23185;SDS011;11761;51.324;4.590;2023-02-21T01:24:49;98.32;;;34.58;;
23185;SDS011;11761;51.324;4.590;2023-02-21T01:27:34;90.30;;;32.38;;
23185;SDS011;11761;51.324;4.590;2023-02-21T01:30:20;87.88;;;32.42;;
23185;SDS011;11761;51.324;4.590;2023-02-21T01:33:04;102.70;;;33.30;;
23185;SDS011;11761;51.324;4.590;2023-02-21T01:35:50;101.10;;;32.90;;
23185;SDS011;11761;51.324;4.590;2023-02-21T01:38:35;92.72;;;32.20;;
23185;SDS011;11761;51.324;4.590;2023-02-21T01:41:20;88.22;;;30.58;;
23185;SDS011;11761;51.324;4.590;2023-02-21T01:44:06;85.60;;;30.92;;
23185;SDS011;11761;51.324;4.590;2023-02-21T01:47:11;88.68;;;31.02;;
23185;SDS011;11761;51.324;4.590;2023-02-21T01:49:56;85.50;;;31.10;;
23185;SDS011;11761;51.324;4.590;2023-02-21T01:52:43;92.07;;;33.28;;
23185;SDS011;11761;51.324;4.590;2023-02-21T01:55:29;91.05;;;32.42;;
23185;SDS011;11761;51.324;4.590;2023-02-21T01:58:15;85.07;;;32.35;;
23185;SDS011;11761;51.324;4.590;2023-02-21T02:01:00;90.18;;;30.13;;
23185;SDS011;11761;51.324;4.590;2023-02-21T02:03:45;99.65;;;31.17;;
23185;SDS011;11761;51.324;4.590;2023-02-21T02:06:30;93.82;;;32.53;;
23185;SDS011;11761;51.324;4.590;2023-02-21T02:09:18;96.03;;;31.38;;
23185;SDS011;11761;51.324;4.590;2023-02-21T02:12:17;94.40;;;31.85;;
23185;SDS011;11761;51.324;4.590;2023-02-21T02:15:05;91.15;;;30.98;;
23185;SDS011;11761;51.324;4.590;2023-02-21T02:34:57;115.63;;;36.53;;
23185;SDS011;11761;51.324;4.590;2023-02-21T02:47:57;130.05;;;38.63;;
23185;SDS011;11761;51.324;4.590;2023-02-21T02:50:30;127.88;;;36.85;;
23185;SDS011;11761;51.324;4.590;2023-02-21T02:52:59;129.27;;;37.22;;
23185;SDS011;11761;51.324;4.590;2023-02-21T02:55:38;130.85;;;38.35;;
23185;SDS011;11761;51.324;4.590;2023-02-21T02:58:08;122.20;;;36.28;;
23185;SDS011;11761;51.324;4.590;2023-02-21T03:00:36;135.57;;;36.65;;
23185;SDS011;11761;51.324;4.590;2023-02-21T03:06:34;133.40;;;37.08;;
23185;SDS011;11761;51.324;4.590;2023-02-21T03:09:13;120.43;;;34.25;;
23185;SDS011;11761;51.324;4.590;2023-02-21T03:14:50;135.98;;;36.63;;
23185;SDS011;11761;51.324;4.590;2023-02-21T03:17:28;138.77;;;36.42;;
23185;SDS011;11761;51.324;4.590;2023-02-21T03:19:57;127.07;;;34.92;;
23185;SDS011;11761;51.324;4.590;2023-02-21T03:22:25;129.65;;;34.13;;
23185;SDS011;11761;51.324;4.590;2023-02-21T03:24:55;126.85;;;34.03;;
23185;SDS011;11761;51.324;4.590;2023-02-21T03:27:25;116.47;;;33.45;;
23185;SDS011;11761;51.324;4.590;2023-02-21T03:29:53;121.60;;;34.15;;
23185;SDS011;11761;51.324;4.590;2023-02-21T03:34:54;124.57;;;34.30;;
23185;SDS011;11761;51.324;4.590;2023-02-21T03:37:42;138.82;;;34.83;;
23185;SDS011;11761;51.324;4.590;2023-02-21T03:40:15;124.00;;;33.72;;
23185;SDS011;11761;51.324;4.590;2023-02-21T03:42:48;128.73;;;34.47;;
23185;SDS011;11761;51.324;4.590;2023-02-21T03:45:15;145.65;;;35.45;;
23185;SDS011;11761;51.324;4.590;2023-02-21T03:47:41;139.10;;;34.92;;
23185;SDS011;11761;51.324;4.590;2023-02-21T03:50:07;129.15;;;32.92;;
23185;SDS011;11761;51.324;4.590;2023-02-21T03:52:33;136.00;;;34.05;;
23185;SDS011;11761;51.324;4.590;2023-02-21T03:54:59;148.25;;;35.35;;
23185;SDS011;11761;51.324;4.590;2023-02-21T03:57:25;138.82;;;35.42;;
23185;SDS011;11761;51.324;4.590;2023-02-21T03:59:51;148.55;;;34.88;;
23185;SDS011;11761;51.324;4.590;2023-02-21T04:02:18;152.70;;;34.03;;
23185;SDS011;11761;51.324;4.590;2023-02-21T04:04:44;134.65;;;34.30;;
23185;SDS011;11761;51.324;4.590;2023-02-21T04:07:14;136.80;;;34.53;;
23185;SDS011;11761;51.324;4.590;2023-02-21T04:09:41;139.80;;;32.83;;
23185;SDS011;11761;51.324;4.590;2023-02-21T04:12:07;140.82;;;33.17;;
23185;SDS011;11761;51.324;4.590;2023-02-21T04:14:33;137.32;;;33.80;;
23185;SDS011;11761;51.324;4.590;2023-02-21T04:16:59;154.70;;;34.10;;
23185;SDS011;11761;51.324;4.590;2023-02-21T04:19:25;154.23;;;34.55;;
23185;SDS011;11761;51.324;4.590;2023-02-21T04:21:51;158.90;;;35.45;;
23185;SDS011;11761;51.324;4.590;2023-02-21T04:24:18;157.90;;;35.03;;
23185;SDS011;11761;51.324;4.590;2023-02-21T04:26:44;167.25;;;35.83;;
23185;SDS011;11761;51.324;4.590;2023-02-21T04:29:10;151.15;;;34.38;;
23185;SDS011;11761;51.324;4.590;2023-02-21T04:31:36;156.80;;;34.45;;
23185;SDS011;11761;51.324;4.590;2023-02-21T04:34:02;168.50;;;35.50;;
23185;SDS011;11761;51.324;4.590;2023-02-21T04:36:29;155.60;;;33.45;;
23185;SDS011;11761;51.324;4.590;2023-02-21T04:38:55;168.13;;;34.53;;
23185;SDS011;11761;51.324;4.590;2023-02-21T04:41:21;160.75;;;33.78;;
23185;SDS011;11761;51.324;4.590;2023-02-21T04:43:48;166.75;;;34.85;;
23185;SDS011;11761;51.324;4.590;2023-02-21T04:46:14;173.98;;;35.55;;
23185;SDS011;11761;51.324;4.590;2023-02-21T04:48:43;163.45;;;33.63;;
23185;SDS011;11761;51.324;4.590;2023-02-21T04:51:10;166.00;;;32.00;;
23185;SDS011;11761;51.324;4.590;2023-02-21T04:53:37;169.63;;;32.17;;
23185;SDS011;11761;51.324;4.590;2023-02-21T04:56:04;148.95;;;30.35;;
23185;SDS011;11761;51.324;4.590;2023-02-21T04:58:30;166.45;;;32.30;;
23185;SDS011;11761;51.324;4.590;2023-02-21T05:00:56;165.27;;;32.92;;
23185;SDS011;11761;51.324;4.590;2023-02-21T05:03:22;152.40;;;32.42;;
23185;SDS011;11761;51.324;4.590;2023-02-21T05:05:49;155.82;;;31.88;;
23185;SDS011;11761;51.324;4.590;2023-02-21T05:08:15;165.68;;;33.15;;
23185;SDS011;11761;51.324;4.590;2023-02-21T05:10:41;151.02;;;31.90;;
23185;SDS011;11761;51.324;4.590;2023-02-21T05:13:07;166.60;;;34.67;;
23185;SDS011;11761;51.324;4.590;2023-02-21T05:15:34;168.02;;;32.60;;
23185;SDS011;11761;51.324;4.590;2023-02-21T05:18:00;151.90;;;31.10;;
23185;SDS011;11761;51.324;4.590;2023-02-21T05:20:26;156.05;;;33.25;;
23185;SDS011;11761;51.324;4.590;2023-02-21T05:22:53;168.02;;;34.17;;
23185;SDS011;11761;51.324;4.590;2023-02-21T05:25:21;175.73;;;33.50;;
23185;SDS011;11761;51.324;4.590;2023-02-21T05:27:48;162.13;;;33.80;;
23185;SDS011;11761;51.324;4.590;2023-02-21T05:30:16;154.00;;;32.78;;
23185;SDS011;11761;51.324;4.590;2023-02-21T05:32:44;171.57;;;34.80;;
23185;SDS011;11761;51.324;4.590;2023-02-21T05:35:12;151.80;;;34.17;;
23185;SDS011;11761;51.324;4.590;2023-02-21T05:37:39;170.05;;;34.58;;
23185;SDS011;11761;51.324;4.590;2023-02-21T05:40:05;176.90;;;33.42;;
23185;SDS011;11761;51.324;4.590;2023-02-21T05:42:32;153.68;;;31.35;;
23185;SDS011;11761;51.324;4.590;2023-02-21T05:44:58;156.05;;;32.67;;
23185;SDS011;11761;51.324;4.590;2023-02-21T05:47:24;164.98;;;32.05;;
23185;SDS011;11761;51.324;4.590;2023-02-21T05:49:50;158.02;;;32.53;;
23185;SDS011;11761;51.324;4.590;2023-02-21T05:52:16;173.57;;;31.85;;
23185;SDS011;11761;51.324;4.590;2023-02-21T05:54:43;156.63;;;33.15;;
23185;SDS011;11761;51.324;4.590;2023-02-21T05:57:09;164.75;;;31.23;;
23185;SDS011;11761;51.324;4.590;2023-02-21T05:59:36;162.48;;;31.42;;
23185;SDS011;11761;51.324;4.590;2023-02-21T06:02:03;163.32;;;31.75;;
23185;SDS011;11761;51.324;4.590;2023-02-21T06:04:29;165.10;;;31.63;;
23185;SDS011;11761;51.324;4.590;2023-02-21T06:06:55;170.68;;;33.10;;
23185;SDS011;11761;51.324;4.590;2023-02-21T06:09:21;155.40;;;31.73;;
23185;SDS011;11761;51.324;4.590;2023-02-21T06:11:47;157.65;;;32.03;;
23185;SDS011;11761;51.324;4.590;2023-02-21T06:14:14;148.80;;;30.67;;
23185;SDS011;11761;51.324;4.590;2023-02-21T06:16:44;153.88;;;30.88;;
23185;SDS011;11761;51.324;4.590;2023-02-21T06:19:11;162.60;;;30.88;;
23185;SDS011;11761;51.324;4.590;2023-02-21T06:21:40;160.55;;;30.15;;
23185;SDS011;11761;51.324;4.590;2023-02-21T06:24:08;163.75;;;30.75;;
23185;SDS011;11761;51.324;4.590;2023-02-21T06:26:35;166.75;;;31.08;;
23185;SDS011;11761;51.324;4.590;2023-02-21T06:29:04;167.63;;;30.90;;
23185;SDS011;11761;51.324;4.590;2023-02-21T06:31:31;162.20;;;31.70;;
23185;SDS011;11761;51.324;4.590;2023-02-21T06:33:58;158.02;;;32.08;;
23185;SDS011;11761;51.324;4.590;2023-02-21T06:36:25;156.85;;;30.80;;
23185;SDS011;11761;51.324;4.590;2023-02-21T06:38:53;172.23;;;32.78;;
23185;SDS011;11761;51.324;4.590;2023-02-21T06:41:22;162.35;;;31.77;;
23185;SDS011;11761;51.324;4.590;2023-02-21T06:43:50;156.95;;;30.95;;
23185;SDS011;11761;51.324;4.590;2023-02-21T06:46:18;160.77;;;31.90;;
23185;SDS011;11761;51.324;4.590;2023-02-21T06:48:46;160.18;;;31.70;;
23185;SDS011;11761;51.324;4.590;2023-02-21T06:51:12;159.80;;;30.80;;
23185;SDS011;11761;51.324;4.590;2023-02-21T06:53:39;169.25;;;31.27;;
23185;SDS011;11761;51.324;4.590;2023-02-21T06:56:06;152.88;;;30.40;;
23185;SDS011;11761;51.324;4.590;2023-02-21T06:58:33;163.10;;;30.27;;
23185;SDS011;11761;51.324;4.590;2023-02-21T07:01:00;146.60;;;30.20;;
23185;SDS011;11761;51.324;4.590;2023-02-21T07:03:26;155.27;;;30.90;;
23185;SDS011;11761;51.324;4.590;2023-02-21T07:05:53;138.50;;;29.23;;
23185;SDS011;11761;51.324;4.590;2023-02-21T07:08:19;143.52;;;29.98;;
23185;SDS011;11761;51.324;4.590;2023-02-21T07:10:46;139.57;;;29.08;;
23185;SDS011;11761;51.324;4.590;2023-02-21T07:13:12;140.18;;;29.23;;
23185;SDS011;11761;51.324;4.590;2023-02-21T07:15:38;136.20;;;30.08;;
23185;SDS011;11761;51.324;4.590;2023-02-21T07:18:04;135.02;;;29.20;;
23185;SDS011;11761;51.324;4.590;2023-02-21T07:20:30;131.50;;;29.42;;
23185;SDS011;11761;51.324;4.590;2023-02-21T07:22:58;136.60;;;29.17;;
23185;SDS011;11761;51.324;4.590;2023-02-21T07:25:24;124.43;;;26.98;;
23185;SDS011;11761;51.324;4.590;2023-02-21T07:27:50;134.57;;;29.77;;
23185;SDS011;11761;51.324;4.590;2023-02-21T07:30:17;136.27;;;29.60;;
23185;SDS011;11761;51.324;4.590;2023-02-21T07:32:43;135.38;;;28.52;;
23185;SDS011;11761;51.324;4.590;2023-02-21T07:35:10;122.43;;;26.60;;
23185;SDS011;11761;51.324;4.590;2023-02-21T07:37:36;119.80;;;28.33;;
23185;SDS011;11761;51.324;4.590;2023-02-21T07:40:03;124.95;;;26.90;;
23185;SDS011;11761;51.324;4.590;2023-02-21T07:42:31;126.47;;;27.23;;
23185;SDS011;11761;51.324;4.590;2023-02-21T07:44:58;124.05;;;28.55;;
23185;SDS011;11761;51.324;4.590;2023-02-21T07:47:24;136.95;;;28.92;;
23185;SDS011;11761;51.324;4.590;2023-02-21T07:49:51;129.68;;;28.23;;
23185;SDS011;11761;51.324;4.590;2023-02-21T07:52:19;140.23;;;29.88;;
23185;SDS011;11761;51.324;4.590;2023-02-21T07:54:46;133.65;;;28.05;;
23185;SDS011;11761;51.324;4.590;2023-02-21T07:57:12;119.10;;;28.27;;
23185;SDS011;11761;51.324;4.590;2023-02-21T07:59:40;122.28;;;29.50;;
23185;SDS011;11761;51.324;4.590;2023-02-21T08:02:06;111.95;;;25.85;;
23185;SDS011;11761;51.324;4.590;2023-02-21T08:04:32;108.75;;;25.35;;
23185;SDS011;11761;51.324;4.590;2023-02-21T08:07:01;106.65;;;24.92;;
23185;SDS011;11761;51.324;4.590;2023-02-21T08:09:28;102.03;;;25.27;;
23185;SDS011;11761;51.324;4.590;2023-02-21T08:11:56;101.97;;;24.52;;
23185;SDS011;11761;51.324;4.590;2023-02-21T08:14:22;107.32;;;23.75;;
23185;SDS011;11761;51.324;4.590;2023-02-21T08:16:48;111.40;;;23.80;;
23185;SDS011;11761;51.324;4.590;2023-02-21T08:19:14;101.72;;;23.30;;
23185;SDS011;11761;51.324;4.590;2023-02-21T08:21:46;115.15;;;24.77;;
23185;SDS011;11761;51.324;4.590;2023-02-21T08:24:13;108.47;;;24.05;;
23185;SDS011;11761;51.324;4.590;2023-02-21T08:26:40;108.10;;;24.92;;
23185;SDS011;11761;51.324;4.590;2023-02-21T08:29:10;114.32;;;25.63;;
23185;SDS011;11761;51.324;4.590;2023-02-21T08:31:37;108.28;;;25.90;;
23185;SDS011;11761;51.324;4.590;2023-02-21T08:34:04;105.38;;;23.92;;
23185;SDS011;11761;51.324;4.590;2023-02-21T08:36:36;107.05;;;25.75;;
23185;SDS011;11761;51.324;4.590;2023-02-21T08:39:04;99.35;;;23.85;;
23185;SDS011;11761;51.324;4.590;2023-02-21T08:41:38;102.05;;;24.15;;
23185;SDS011;11761;51.324;4.590;2023-02-21T08:44:13;103.45;;;24.50;;
23185;SDS011;11761;51.324;4.590;2023-02-21T08:46:41;87.65;;;22.85;;
23185;SDS011;11761;51.324;4.590;2023-02-21T08:49:08;97.88;;;23.80;;
23185;SDS011;11761;51.324;4.590;2023-02-21T08:51:35;96.60;;;23.67;;
23185;SDS011;11761;51.324;4.590;2023-02-21T08:54:01;79.10;;;20.95;;
23185;SDS011;11761;51.324;4.590;2023-02-21T08:56:28;91.13;;;21.88;;
23185;SDS011;11761;51.324;4.590;2023-02-21T08:58:55;94.75;;;21.23;;
23185;SDS011;11761;51.324;4.590;2023-02-21T09:01:21;85.10;;;20.40;;
23185;SDS011;11761;51.324;4.590;2023-02-21T09:03:48;77.75;;;21.00;;
23185;SDS011;11761;51.324;4.590;2023-02-21T09:06:15;80.25;;;19.80;;
23185;SDS011;11761;51.324;4.590;2023-02-21T09:08:41;79.15;;;20.00;;
23185;SDS011;11761;51.324;4.590;2023-02-21T09:11:07;89.53;;;19.73;;
23185;SDS011;11761;51.324;4.590;2023-02-21T09:13:34;82.28;;;20.17;;
23185;SDS011;11761;51.324;4.590;2023-02-21T09:16:00;64.28;;;18.15;;
23185;SDS011;11761;51.324;4.590;2023-02-21T09:18:28;63.42;;;18.33;;
23185;SDS011;11761;51.324;4.590;2023-02-21T09:20:55;64.22;;;17.33;;
23185;SDS011;11761;51.324;4.590;2023-02-21T09:23:23;53.92;;;15.77;;
23185;SDS011;11761;51.324;4.590;2023-02-21T09:25:50;58.35;;;15.70;;
23185;SDS011;11761;51.324;4.590;2023-02-21T09:28:16;59.45;;;15.80;;
23185;SDS011;11761;51.324;4.590;2023-02-21T09:30:43;49.75;;;15.27;;
23185;SDS011;11761;51.324;4.590;2023-02-21T09:33:10;56.88;;;15.98;;
23185;SDS011;11761;51.324;4.590;2023-02-21T09:35:37;56.88;;;16.02;;
23185;SDS011;11761;51.324;4.590;2023-02-21T09:38:03;52.25;;;15.15;;
23185;SDS011;11761;51.324;4.590;2023-02-21T09:40:36;57.10;;;16.13;;
23185;SDS011;11761;51.324;4.590;2023-02-21T09:43:05;53.28;;;14.98;;
23185;SDS011;11761;51.324;4.590;2023-02-21T09:45:36;55.25;;;14.65;;
23185;SDS011;11761;51.324;4.590;2023-02-21T09:48:05;45.95;;;13.45;;
23185;SDS011;11761;51.324;4.590;2023-02-21T09:50:40;50.05;;;14.15;;
23185;SDS011;11761;51.324;4.590;2023-02-21T09:53:13;38.03;;;12.93;;
23185;SDS011;11761;51.324;4.590;2023-02-21T09:55:43;39.20;;;12.98;;
23185;SDS011;11761;51.324;4.590;2023-02-21T09:58:12;31.25;;;11.30;;
23185;SDS011;11761;51.324;4.590;2023-02-21T10:00:39;38.60;;;12.88;;
23185;SDS011;11761;51.324;4.590;2023-02-21T10:05:53;42.03;;;13.00;;
23185;SDS011;11761;51.324;4.590;2023-02-21T10:08:38;41.28;;;14.23;;
23185;SDS011;11761;51.324;4.590;2023-02-21T10:11:31;40.10;;;13.02;;
23185;SDS011;11761;51.324;4.590;2023-02-21T10:17:05;42.85;;;14.32;;
23185;SDS011;11761;51.324;4.590;2023-02-21T10:19:58;42.88;;;14.45;;
23185;SDS011;11761;51.324;4.590;2023-02-21T10:22:30;40.85;;;14.27;;
23185;SDS011;11761;51.324;4.590;2023-02-21T10:25:00;42.70;;;13.70;;
23185;SDS011;11761;51.324;4.590;2023-02-21T10:27:45;43.53;;;14.25;;
23185;SDS011;11761;51.324;4.590;2023-02-21T10:30:14;39.92;;;13.93;;
23185;SDS011;11761;51.324;4.590;2023-02-21T10:33:03;40.97;;;13.30;;
23185;SDS011;11761;51.324;4.590;2023-02-21T10:35:37;35.60;;;13.80;;
23185;SDS011;11761;51.324;4.590;2023-02-21T10:38:05;36.25;;;13.45;;
23185;SDS011;11761;51.324;4.590;2023-02-21T10:43:16;37.45;;;14.75;;
23185;SDS011;11761;51.324;4.590;2023-02-21T10:48:49;52.47;;;16.77;;
23185;SDS011;11761;51.324;4.590;2023-02-21T10:51:27;57.97;;;19.17;;
23185;SDS011;11761;51.324;4.590;2023-02-21T10:53:54;49.08;;;19.02;;
23185;SDS011;11761;51.324;4.590;2023-02-21T10:56:48;51.85;;;19.27;;
23185;SDS011;11761;51.324;4.590;2023-02-21T10:59:30;47.88;;;18.73;;
23185;SDS011;11761;51.324;4.590;2023-02-21T11:02:00;46.97;;;17.67;;
23185;SDS011;11761;51.324;4.590;2023-02-21T11:04:30;48.17;;;18.60;;
23185;SDS011;11761;51.324;4.590;2023-02-21T11:07:07;46.60;;;18.00;;
23185;SDS011;11761;51.324;4.590;2023-02-21T11:12:15;49.67;;;18.83;;
23185;SDS011;11761;51.324;4.590;2023-02-21T11:19:46;52.85;;;20.92;;
23185;SDS011;11761;51.324;4.590;2023-02-21T11:22:15;44.33;;;17.75;;
23185;SDS011;11761;51.324;4.590;2023-02-21T11:25:26;42.28;;;17.73;;
23185;SDS011;11761;51.324;4.590;2023-02-21T11:27:36;42.10;;;19.50;;
23185;SDS011;11761;51.324;4.590;2023-02-21T11:30:10;43.55;;;18.90;;
23185;SDS011;11761;51.324;4.590;2023-02-21T11:32:47;41.03;;;17.83;;
23185;SDS011;11761;51.324;4.590;2023-02-21T11:35:21;44.97;;;18.08;;
23185;SDS011;11761;51.324;4.590;2023-02-21T11:37:58;47.45;;;20.65;;
23185;SDS011;11761;51.324;4.590;2023-02-21T11:43:18;47.80;;;20.08;;
23185;SDS011;11761;51.324;4.590;2023-02-21T11:46:04;48.42;;;21.95;;
23185;SDS011;11761;51.324;4.590;2023-02-21T11:48:50;42.85;;;20.50;;
23185;SDS011;11761;51.324;4.590;2023-02-21T11:53:51;41.93;;;19.53;;
23185;SDS011;11761;51.324;4.590;2023-02-21T11:56:35;43.35;;;19.33;;
23185;SDS011;11761;51.324;4.590;2023-02-21T11:59:12;46.83;;;20.58;;
23185;SDS011;11761;51.324;4.590;2023-02-21T12:02:04;50.17;;;21.55;;
23185;SDS011;11761;51.324;4.590;2023-02-21T12:05:29;50.17;;;22.25;;
23185;SDS011;11761;51.324;4.590;2023-02-21T12:11:44;52.05;;;21.73;;
23185;SDS011;11761;51.324;4.590;2023-02-21T12:14:01;44.05;;;20.45;;
23185;SDS011;11761;51.324;4.590;2023-02-21T12:16:59;44.33;;;19.25;;
23185;SDS011;11761;51.324;4.590;2023-02-21T12:25:21;41.13;;;18.60;;
23185;SDS011;11761;51.324;4.590;2023-02-21T12:44:12;41.78;;;19.90;;
23185;SDS011;11761;51.324;4.590;2023-02-21T12:46:55;45.42;;;19.63;;
23185;SDS011;11761;51.324;4.590;2023-02-21T12:49:28;47.50;;;19.45;;
23185;SDS011;11761;51.324;4.590;2023-02-21T12:54:42;40.83;;;18.30;;
23185;SDS011;11761;51.324;4.590;2023-02-21T12:57:38;29.63;;;13.75;;
23185;SDS011;11761;51.324;4.590;2023-02-21T13:00:37;24.27;;;11.68;;
23185;SDS011;11761;51.324;4.590;2023-02-21T13:05:59;26.33;;;12.43;;
23185;SDS011;11761;51.324;4.590;2023-02-21T13:14:23;25.33;;;12.23;;
23185;SDS011;11761;51.324;4.590;2023-02-21T13:16:56;24.42;;;11.63;;
23185;SDS011;11761;51.324;4.590;2023-02-21T13:19:22;22.90;;;11.48;;
23185;SDS011;11761;51.324;4.590;2023-02-21T13:28:13;22.38;;;11.00;;
23185;SDS011;11761;51.324;4.590;2023-02-21T13:30:52;24.38;;;12.18;;
23185;SDS011;11761;51.324;4.590;2023-02-21T13:33:28;25.05;;;12.25;;
23185;SDS011;11761;51.324;4.590;2023-02-21T13:41:48;25.13;;;12.88;;
23185;SDS011;11761;51.324;4.590;2023-02-21T13:47:07;29.13;;;13.13;;
23185;SDS011;11761;51.324;4.590;2023-02-21T13:49:57;27.05;;;13.80;;
23185;SDS011;11761;51.324;4.590;2023-02-21T13:52:25;29.35;;;13.30;;
23185;SDS011;11761;51.324;4.590;2023-02-21T13:57:50;33.08;;;14.82;;
23185;SDS011;11761;51.324;4.590;2023-02-21T14:05:20;36.95;;;16.60;;
23185;SDS011;11761;51.324;4.590;2023-02-21T14:10:24;37.00;;;17.33;;
23185;SDS011;11761;51.324;4.590;2023-02-21T14:12:54;42.50;;;18.92;;
23185;SDS011;11761;51.324;4.590;2023-02-21T14:15:35;47.15;;;18.73;;
23185;SDS011;11761;51.324;4.590;2023-02-21T14:18:03;46.45;;;20.80;;
23185;SDS011;11761;51.324;4.590;2023-02-21T14:20:29;47.17;;;19.73;;
23185;SDS011;11761;51.324;4.590;2023-02-21T14:22:56;50.60;;;21.20;;
23185;SDS011;11761;51.324;4.590;2023-02-21T14:25:24;50.38;;;20.85;;
23185;SDS011;11761;51.324;4.590;2023-02-21T14:27:52;48.40;;;22.73;;
23185;SDS011;11761;51.324;4.590;2023-02-21T14:32:52;56.45;;;23.80;;
23185;SDS011;11761;51.324;4.590;2023-02-21T14:35:23;53.03;;;21.92;;
23185;SDS011;11761;51.324;4.590;2023-02-21T14:37:56;51.33;;;22.80;;
23185;SDS011;11761;51.324;4.590;2023-02-21T14:43:41;45.25;;;21.00;;
23185;SDS011;11761;51.324;4.590;2023-02-21T14:45:56;48.60;;;21.25;;
23185;SDS011;11761;51.324;4.590;2023-02-21T15:00:26;59.42;;;26.88;;
23185;SDS011;11761;51.324;4.590;2023-02-21T15:02:48;65.25;;;30.35;;
23185;SDS011;11761;51.324;4.590;2023-02-21T15:08:20;68.28;;;30.85;;
23185;SDS011;11761;51.324;4.590;2023-02-21T15:10:55;70.90;;;34.72;;
23185;SDS011;11761;51.324;4.590;2023-02-21T15:13:29;66.82;;;29.30;;
23185;SDS011;11761;51.324;4.590;2023-02-21T15:15:59;63.83;;;28.60;;
23185;SDS011;11761;51.324;4.590;2023-02-21T15:18:32;61.55;;;26.98;;
23185;SDS011;11761;51.324;4.590;2023-02-21T15:23:34;59.95;;;27.23;;
23185;SDS011;11761;51.324;4.590;2023-02-21T15:26:15;61.03;;;27.40;;
23185;SDS011;11761;51.324;4.590;2023-02-21T15:29:09;61.67;;;28.42;;
23185;SDS011;11761;51.324;4.590;2023-02-21T15:31:50;61.45;;;27.08;;
23185;SDS011;11761;51.324;4.590;2023-02-21T15:34:20;62.80;;;28.02;;
23185;SDS011;11761;51.324;4.590;2023-02-21T15:36:55;53.85;;;24.80;;
23185;SDS011;11761;51.324;4.590;2023-02-21T15:39:28;50.60;;;23.30;;
23185;SDS011;11761;51.324;4.590;2023-02-21T15:41:58;47.47;;;22.73;;
23185;SDS011;11761;51.324;4.590;2023-02-21T15:44:27;41.40;;;20.73;;
23185;SDS011;11761;51.324;4.590;2023-02-21T15:49:32;40.53;;;20.88;;
23185;SDS011;11761;51.324;4.590;2023-02-21T15:52:06;45.47;;;22.95;;
23185;SDS011;11761;51.324;4.590;2023-02-21T15:54:33;43.80;;;21.67;;
23185;SDS011;11761;51.324;4.590;2023-02-21T15:57:11;45.85;;;24.05;;
23185;SDS011;11761;51.324;4.590;2023-02-21T15:59:45;49.95;;;26.17;;
23185;SDS011;11761;51.324;4.590;2023-02-21T16:02:14;53.33;;;26.17;;
23185;SDS011;11761;51.324;4.590;2023-02-21T16:04:47;49.53;;;24.35;;
23185;SDS011;11761;51.324;4.590;2023-02-21T16:07:21;52.00;;;26.55;;
23185;SDS011;11761;51.324;4.590;2023-02-21T16:09:59;48.78;;;24.55;;
23185;SDS011;11761;51.324;4.590;2023-02-21T16:12:33;49.60;;;24.58;;
23185;SDS011;11761;51.324;4.590;2023-02-21T16:15:01;53.92;;;26.65;;
23185;SDS011;11761;51.324;4.590;2023-02-21T16:17:34;55.60;;;26.27;;
23185;SDS011;11761;51.324;4.590;2023-02-21T16:20:19;48.60;;;25.35;;
23185;SDS011;11761;51.324;4.590;2023-02-21T16:22:50;48.70;;;24.00;;
23185;SDS011;11761;51.324;4.590;2023-02-21T16:25:53;49.97;;;24.08;;
23185;SDS011;11761;51.324;4.590;2023-02-21T16:28:34;48.00;;;25.05;;
23185;SDS011;11761;51.324;4.590;2023-02-21T16:31:02;52.08;;;26.60;;
23185;SDS011;11761;51.324;4.590;2023-02-21T16:33:30;50.28;;;24.92;;
23185;SDS011;11761;51.324;4.590;2023-02-21T16:35:57;51.70;;;25.00;;
23185;SDS011;11761;51.324;4.590;2023-02-21T16:38:25;48.83;;;24.98;;
23185;SDS011;11761;51.324;4.590;2023-02-21T16:40:51;49.78;;;24.60;;
23185;SDS011;11761;51.324;4.590;2023-02-21T16:43:22;48.50;;;23.42;;
23185;SDS011;11761;51.324;4.590;2023-02-21T16:45:51;47.40;;;23.98;;
23185;SDS011;11761;51.324;4.590;2023-02-21T16:48:20;42.75;;;21.75;;
23185;SDS011;11761;51.324;4.590;2023-02-21T16:50:49;49.55;;;23.20;;
23185;SDS011;11761;51.324;4.590;2023-02-21T16:53:16;45.63;;;22.50;;
23185;SDS011;11761;51.324;4.590;2023-02-21T16:55:43;47.88;;;24.30;;
23185;SDS011;11761;51.324;4.590;2023-02-21T16:58:20;48.88;;;24.17;;
23185;SDS011;11761;51.324;4.590;2023-02-21T17:00:53;48.17;;;23.58;;
23185;SDS011;11761;51.324;4.590;2023-02-21T17:03:22;44.33;;;23.02;;
23185;SDS011;11761;51.324;4.590;2023-02-21T17:05:51;48.33;;;24.00;;
23185;SDS011;11761;51.324;4.590;2023-02-21T17:08:18;49.05;;;23.73;;
23185;SDS011;11761;51.324;4.590;2023-02-21T17:10:44;54.25;;;25.50;;
23185;SDS011;11761;51.324;4.590;2023-02-21T17:13:10;52.55;;;26.50;;
23185;SDS011;11761;51.324;4.590;2023-02-21T17:15:36;61.75;;;29.02;;
23185;SDS011;11761;51.324;4.590;2023-02-21T17:18:03;57.97;;;27.52;;